createdAt,value
2022-12-13T00:00:57.355Z,13.27
2022-12-13T00:05:58.905Z,12.93
2022-12-13T00:11:01.875Z,12.83
2022-12-13T00:16:06.322Z,12.07
2022-12-13T00:21:18.940Z,11.47
2022-12-13T00:26:22.836Z,11.60
2022-12-13T00:36:48.231Z,12.17
2022-12-13T00:41:49.829Z,11.57
2022-12-13T00:46:54.598Z,11.33
2022-12-13T00:51:56.964Z,9.60
2022-12-13T00:56:58.859Z,10.63
2022-12-13T01:02:00.459Z,12.13
2022-12-13T01:07:02.109Z,10.60
2022-12-13T01:12:05.572Z,11.43
2022-12-13T01:17:08.042Z,10.87
2022-12-13T01:22:11.627Z,11.47
2022-12-13T01:27:13.174Z,9.63
2022-12-13T01:32:14.760Z,10.67
2022-12-13T01:37:17.583Z,11.80
2022-12-13T01:42:19.170Z,10.33
2022-12-13T01:47:25.826Z,11.30
2022-12-13T01:52:29.466Z,11.77
2022-12-13T01:57:33.228Z,11.10
2022-12-13T02:02:35.314Z,10.70
2022-12-13T02:07:38.503Z,10.07
2022-12-13T02:12:40.737Z,11.00
2022-12-13T02:18:05.420Z,11.43
2022-12-13T02:23:31.139Z,10.07
2022-12-13T02:28:51.633Z,10.93
2022-12-13T02:34:02.468Z,10.83
2022-12-13T02:39:16.907Z,10.00
2022-12-13T02:44:51.728Z,8.83
2022-12-13T02:49:58.849Z,9.73
2022-12-13T02:55:07.344Z,8.80
2022-12-13T03:00:21.425Z,9.17
2022-12-13T03:06:13.841Z,10.57
2022-12-13T03:11:17.813Z,10.90
2022-12-13T03:16:40.682Z,9.47
2022-12-13T03:21:48.547Z,9.80
2022-12-13T03:26:51.066Z,10.60
2022-12-13T03:31:53.889Z,10.97
2022-12-13T03:36:55.545Z,11.77
2022-12-13T03:41:57.134Z,10.40
2022-12-13T03:47:00.663Z,9.40
2022-12-13T03:52:02.687Z,11.60
2022-12-13T03:57:04.247Z,11.07
2022-12-13T04:02:05.908Z,11.53
2022-12-13T04:07:22.014Z,10.50
2022-12-13T04:12:48.169Z,10.60
2022-12-13T04:17:51.155Z,9.80
2022-12-13T04:22:52.958Z,9.50
2022-12-13T04:27:54.499Z,9.63
2022-12-13T04:32:56.790Z,9.33
2022-12-13T04:37:58.426Z,11.07
2022-12-13T04:42:59.968Z,11.83
2022-12-13T04:48:01.591Z,11.63
2022-12-13T04:53:03.399Z,11.97
2022-12-13T04:58:05.010Z,12.57
2022-12-13T05:03:08.134Z,11.10
2022-12-13T05:08:09.694Z,12.57
2022-12-13T05:13:11.322Z,14.10
2022-12-13T05:18:12.875Z,12.47
2022-12-13T05:23:14.524Z,14.93
2022-12-13T05:28:28.956Z,13.43
2022-12-13T05:33:30.715Z,14.87
2022-12-13T05:38:32.537Z,13.97
2022-12-13T05:43:43.215Z,15.83
2022-12-13T05:48:45.419Z,13.37
2022-12-13T05:53:51.560Z,14.37
2022-12-13T05:58:54.966Z,13.97
2022-12-13T06:03:56.865Z,13.10
2022-12-13T06:08:59.785Z,14.10
2022-12-13T06:14:01.544Z,12.83
2022-12-13T06:19:04.799Z,12.43
2022-12-13T06:24:08.666Z,14.53
2022-12-13T06:29:11.132Z,13.00
2022-12-13T06:34:13.979Z,13.00
2022-12-13T06:39:16.977Z,12.53
2022-12-13T06:44:18.609Z,12.83
2022-12-13T06:49:20.263Z,13.37
2022-12-13T06:54:23.868Z,12.83
2022-12-13T06:59:25.445Z,13.87
2022-12-13T07:04:29.741Z,12.07
2022-12-13T07:09:32.299Z,13.10
2022-12-13T07:14:40.655Z,12.17
2022-12-13T07:19:43.364Z,13.97
2022-12-13T07:24:45.291Z,12.43
2022-12-13T07:29:46.944Z,13.30
2022-12-13T07:34:48.927Z,14.90
2022-12-13T07:39:50.525Z,14.17
2022-12-13T07:44:52.551Z,14.90
2022-12-13T07:49:54.159Z,12.37
2022-12-13T07:54:55.766Z,14.33
2022-12-13T07:59:58.090Z,14.77
2022-12-13T08:04:59.741Z,16.47
2022-12-13T08:10:21.303Z,15.07
2022-12-13T08:15:23.293Z,16.60
2022-12-13T08:20:24.875Z,14.70
2022-12-13T08:25:27.103Z,12.77
2022-12-13T08:30:28.707Z,14.37
2022-12-13T08:35:33.955Z,16.03
2022-12-13T08:40:36.646Z,14.70
2022-12-13T08:45:38.261Z,14.90
2022-12-13T08:50:39.919Z,14.60
2022-12-13T08:55:42.043Z,13.80
2022-12-13T09:00:45.271Z,13.60
2022-12-13T09:05:46.856Z,14.27
2022-12-13T09:10:59.195Z,12.67
2022-12-13T09:16:05.057Z,12.50
2022-12-13T09:21:22.112Z,12.67
2022-12-13T09:26:25.481Z,13.67
2022-12-13T09:31:27.338Z,13.47
2022-12-13T09:36:29.211Z,12.30
2022-12-13T09:41:34.320Z,15.33
2022-12-13T09:46:45.522Z,12.93
2022-12-13T09:52:01.305Z,15.90
2022-12-13T09:57:31.353Z,14.57
2022-12-13T10:02:42.540Z,13.13
2022-12-13T10:07:44.490Z,16.10
2022-12-13T10:12:49.044Z,15.67
2022-12-13T10:17:55.673Z,11.63
2022-12-13T10:28:25.466Z,12.70
2022-12-13T10:33:51.525Z,11.83
2022-12-13T10:38:53.112Z,11.90
2022-12-13T10:44:17.756Z,13.13
2022-12-13T10:49:24.587Z,13.10
2022-12-13T10:54:38.851Z,11.83
2022-12-13T10:59:51.072Z,11.67
2022-12-13T11:04:52.660Z,10.70
2022-12-13T11:09:54.287Z,11.57
2022-12-13T11:14:55.910Z,10.67
2022-12-13T11:20:19.938Z,13.37
2022-12-13T11:25:33.919Z,9.60
2022-12-13T11:31:09.685Z,9.83
2022-12-13T11:36:26.595Z,12.37
2022-12-13T11:41:32.472Z,10.97
2022-12-13T11:46:40.767Z,10.37
2022-12-13T11:52:04.916Z,10.03
2022-12-13T11:57:16.382Z,11.30
2022-12-13T12:02:29.505Z,10.37
2022-12-13T12:08:21.019Z,8.33
2022-12-13T12:13:27.232Z,8.63
2022-12-13T12:18:28.970Z,9.60
2022-12-13T12:23:53.878Z,7.40
2022-12-13T12:29:11.894Z,7.80
2022-12-13T12:34:27.215Z,9.00
2022-12-13T12:39:48.510Z,8.03
2022-12-13T12:44:50.566Z,8.67
2022-12-13T12:50:18.533Z,8.07
2022-12-13T12:55:33.222Z,8.70
2022-12-13T13:00:42.314Z,9.37
2022-12-13T13:06:03.098Z,8.17
2022-12-13T13:11:05.693Z,8.20
2022-12-13T13:16:26.825Z,8.87
2022-12-13T13:21:34.203Z,7.50
2022-12-13T13:26:47.889Z,6.90
2022-12-13T13:32:01.126Z,7.07
2022-12-13T13:37:05.044Z,7.70
2022-12-13T13:42:15.600Z,7.53
2022-12-13T13:47:19.898Z,6.60
2022-12-13T13:52:25.341Z,5.60
2022-12-13T14:04:04.252Z,8.23
2022-12-13T14:09:24.838Z,6.87
2022-12-13T14:14:49.936Z,7.77
2022-12-13T14:20:06.325Z,10.07
2022-12-13T14:25:23.327Z,7.53
2022-12-13T14:30:27.233Z,8.43
2022-12-13T14:35:32.493Z,6.83
2022-12-13T14:40:38.972Z,8.07
2022-12-13T14:45:40.679Z,7.87
2022-12-13T14:50:44.807Z,8.03
2022-12-13T14:56:04.269Z,8.30
2022-12-13T15:01:37.423Z,9.10
2022-12-13T15:06:39.518Z,8.37
2022-12-13T15:11:42.626Z,9.23
2022-12-13T15:16:55.400Z,8.43
2022-12-13T15:22:07.563Z,8.20
2022-12-13T15:27:13.342Z,10.00
2022-12-13T15:32:19.083Z,9.80
2022-12-13T15:37:29.659Z,9.47
2022-12-13T15:42:37.307Z,10.73
2022-12-13T15:47:44.533Z,9.53
2022-12-13T15:52:47.935Z,11.40
2022-12-13T15:57:54.615Z,11.07
2022-12-13T16:03:12.884Z,9.33
2022-12-13T16:08:32.806Z,14.37
2022-12-13T16:13:39.940Z,10.30
2022-12-13T16:18:55.157Z,14.10
2022-12-13T16:23:56.745Z,10.70
2022-12-13T16:29:01.135Z,13.60
2022-12-13T16:34:03.614Z,12.13
2022-12-13T16:39:07.649Z,12.27
2022-12-13T16:44:19.030Z,12.03
2022-12-13T16:49:30.630Z,13.57
2022-12-13T16:54:32.172Z,12.63
2022-12-13T16:59:33.874Z,9.67
2022-12-13T17:04:39.633Z,10.57
2022-12-13T17:09:42.167Z,12.90
2022-12-13T17:14:43.751Z,11.23
2022-12-13T17:19:45.401Z,11.63
2022-12-13T17:24:47.013Z,14.53
2022-12-13T17:29:48.611Z,17.30
2022-12-13T17:34:53.187Z,16.63
2022-12-13T17:39:54.729Z,14.03
2022-12-13T17:44:56.336Z,16.30
2022-12-13T17:49:57.950Z,13.73
2022-12-13T17:55:00.926Z,21.23
2022-12-13T18:00:03.927Z,19.03
2022-12-13T18:05:17.868Z,17.23
2022-12-13T18:10:22.583Z,18.43
2022-12-13T18:15:27.969Z,17.30
2022-12-13T18:20:30.166Z,16.87
2022-12-13T18:25:31.983Z,19.23
2022-12-13T18:30:33.712Z,17.97
2022-12-13T18:35:35.356Z,18.80
2022-12-13T18:40:37.471Z,16.93
2022-12-13T18:45:39.064Z,18.37
2022-12-13T18:50:45.535Z,17.57
2022-12-13T18:55:51.029Z,16.63
2022-12-13T19:00:52.890Z,18.03
2022-12-13T19:05:58.343Z,18.10
2022-12-13T19:11:01.881Z,17.50
2022-12-13T19:16:07.453Z,19.17
2022-12-13T19:21:15.789Z,17.37
2022-12-13T19:26:17.884Z,19.27
2022-12-13T19:31:19.569Z,20.37
2022-12-13T19:36:21.458Z,17.90
2022-12-13T19:41:24.647Z,21.27
2022-12-13T19:46:26.408Z,20.80
2022-12-13T19:51:28.015Z,19.30
2022-12-13T19:56:29.716Z,20.10
2022-12-13T20:01:31.593Z,18.50
2022-12-13T20:06:33.202Z,22.73
2022-12-13T20:11:36.129Z,19.57
2022-12-13T20:16:37.755Z,20.77
2022-12-13T20:21:39.377Z,18.97
2022-12-13T20:26:40.996Z,20.83
2022-12-13T20:31:42.695Z,21.10
2022-12-13T20:36:50.201Z,22.07
2022-12-13T20:41:51.851Z,20.07
2022-12-13T20:46:53.757Z,19.30
2022-12-13T20:51:55.390Z,21.17
2022-12-13T20:56:57.092Z,17.97
2022-12-13T21:01:58.806Z,20.07
2022-12-13T21:07:02.553Z,22.67
2022-12-13T21:12:04.319Z,20.07
2022-12-13T21:17:09.597Z,19.83
2022-12-13T21:22:12.702Z,22.00
2022-12-13T21:27:14.564Z,22.13
2022-12-13T21:32:16.375Z,22.67
2022-12-13T21:37:18.466Z,18.23
2022-12-13T21:42:20.365Z,20.40
2022-12-13T21:47:22.178Z,21.67
2022-12-13T21:52:23.914Z,20.20
2022-12-13T21:57:44.601Z,21.87
2022-12-13T22:02:46.304Z,20.57
2022-12-13T22:07:48.128Z,22.07
2022-12-13T22:12:49.811Z,23.07
2022-12-13T22:17:53.175Z,20.33
2022-12-13T22:22:54.891Z,21.70
2022-12-13T22:27:57.283Z,21.53
2022-12-13T22:32:58.845Z,21.13
2022-12-13T22:38:01.788Z,24.63
2022-12-13T22:43:03.521Z,23.40
2022-12-13T22:48:05.665Z,20.97
2022-12-13T22:53:07.290Z,25.33
2022-12-13T22:58:08.838Z,21.30
2022-12-13T23:03:11.310Z,23.00
2022-12-13T23:08:12.942Z,23.63
2022-12-13T23:13:14.578Z,22.50
2022-12-13T23:18:16.105Z,23.40
2022-12-13T23:23:17.716Z,22.97
2022-12-13T23:28:19.319Z,24.03
2022-12-13T23:33:20.977Z,23.37
2022-12-13T23:38:22.515Z,23.03
2022-12-13T23:43:24.112Z,24.63
2022-12-13T23:48:27.142Z,23.43
2022-12-13T23:53:28.866Z,25.37
2022-12-13T23:58:30.571Z,24.17
